createdAt,value
2023-11-22T00:01:26.368Z,8.77
2023-11-22T00:03:55.556Z,8.73
2023-11-22T00:06:23.436Z,9.10
2023-11-22T00:08:51.242Z,7.90
2023-11-22T00:11:19.164Z,8.82
2023-11-22T00:13:46.936Z,8.63
2023-11-22T00:16:14.631Z,8.60
2023-11-22T00:18:42.406Z,8.85
2023-11-22T00:21:12.618Z,8.60
2023-11-22T00:23:40.309Z,9.50
2023-11-22T00:26:08.245Z,8.60
2023-11-22T00:28:37.918Z,8.00
2023-11-22T00:31:05.719Z,8.63
2023-11-22T00:33:33.476Z,8.02
2023-11-22T00:36:01.190Z,9.05
2023-11-22T00:38:30.309Z,9.07
2023-11-22T00:40:59.202Z,9.48
2023-11-22T00:43:27.674Z,9.20
2023-11-22T00:45:55.470Z,9.10
2023-11-22T00:48:23.276Z,9.43
2023-11-22T00:50:51.005Z,9.82
2023-11-22T00:53:19.497Z,8.65
2023-11-22T00:55:48.653Z,9.55
2023-11-22T00:58:17.414Z,10.57
2023-11-22T01:00:45.919Z,9.20
2023-11-22T01:03:13.981Z,9.15
2023-11-22T01:05:43.508Z,9.75
2023-11-22T01:08:11.295Z,9.13
2023-11-22T01:10:39.074Z,9.23
2023-11-22T01:13:08.258Z,8.88
2023-11-22T01:15:36.278Z,9.50
2023-11-22T01:18:04.656Z,10.45
2023-11-22T01:20:32.507Z,8.88
2023-11-22T01:23:00.398Z,9.07
2023-11-22T01:25:29.285Z,9.80
2023-11-22T01:27:57.184Z,9.20
2023-11-22T01:30:26.249Z,9.07
2023-11-22T01:32:54.101Z,9.63
2023-11-22T01:35:21.918Z,10.15
2023-11-22T01:37:50.386Z,9.15
2023-11-22T01:40:20.219Z,10.40
2023-11-22T01:42:48.409Z,10.82
2023-11-22T01:45:16.401Z,11.82
2023-11-22T01:47:45.807Z,10.45
2023-11-22T01:50:15.692Z,11.20
2023-11-22T01:52:43.768Z,11.68
2023-11-22T01:55:11.671Z,9.63
2023-11-22T01:57:39.751Z,10.85
2023-11-22T02:00:09.432Z,9.63
2023-11-22T02:02:45.373Z,11.13
2023-11-22T02:05:13.326Z,11.20
2023-11-22T02:07:42.501Z,10.48
2023-11-22T02:10:10.806Z,11.68
2023-11-22T02:12:38.547Z,10.55
2023-11-22T02:15:08.136Z,11.55
2023-11-22T02:17:37.206Z,10.70
2023-11-22T02:20:10.725Z,10.93
2023-11-22T02:22:45.229Z,11.55
2023-11-22T02:25:16.545Z,12.35
2023-11-22T02:27:44.550Z,10.52
2023-11-22T02:30:13.405Z,11.60
2023-11-22T02:32:41.327Z,11.05
2023-11-22T02:35:10.108Z,12.43
2023-11-22T02:37:39.243Z,11.63
2023-11-22T02:40:11.761Z,11.30
2023-11-22T02:42:40.937Z,12.00
2023-11-22T02:45:09.829Z,11.82
2023-11-22T02:47:38.173Z,13.90
2023-11-22T02:50:06.921Z,13.52
2023-11-22T02:52:34.851Z,13.65
2023-11-22T02:55:02.616Z,13.27
2023-11-22T02:57:30.376Z,12.10
2023-11-22T02:59:59.769Z,13.95
2023-11-22T03:02:28.155Z,13.80
2023-11-22T03:04:55.930Z,12.23
2023-11-22T03:07:23.642Z,13.45
2023-11-22T03:09:52.120Z,12.80
2023-11-22T03:12:21.158Z,11.85
2023-11-22T03:15:01.346Z,10.35
2023-11-22T03:17:30.234Z,12.82
2023-11-22T03:19:58.715Z,10.45
2023-11-22T03:22:26.705Z,11.32
2023-11-22T03:24:54.822Z,11.65
2023-11-22T03:27:23.541Z,9.68
2023-11-22T03:29:51.524Z,9.10
2023-11-22T03:32:20.709Z,10.40
2023-11-22T03:34:48.541Z,9.57
2023-11-22T03:37:16.388Z,9.45
2023-11-22T03:39:49.907Z,9.57
2023-11-22T03:42:18.364Z,9.27
2023-11-22T03:44:47.109Z,9.05
2023-11-22T03:47:17.579Z,9.60
2023-11-22T03:49:49.839Z,9.68
2023-11-22T03:52:17.638Z,9.70
2023-11-22T03:54:45.331Z,8.40
2023-11-22T03:57:12.992Z,9.90
2023-11-22T03:59:44.067Z,8.68
2023-11-22T04:02:11.918Z,9.35
2023-11-22T04:04:40.791Z,8.30
2023-11-22T04:07:10.077Z,8.55
2023-11-22T04:09:37.754Z,8.55
2023-11-22T04:12:06.063Z,8.43
2023-11-22T04:14:33.798Z,7.15
2023-11-22T04:17:01.807Z,7.35
2023-11-22T04:19:29.702Z,7.78
2023-11-22T04:21:57.784Z,7.90
2023-11-22T04:24:27.065Z,7.85
2023-11-22T04:26:54.787Z,7.45
2023-11-22T04:29:22.522Z,8.10
2023-11-22T04:31:50.203Z,7.53
2023-11-22T04:34:17.888Z,7.55
2023-11-22T04:36:47.642Z,8.30
2023-11-22T04:39:16.441Z,7.63
2023-11-22T04:41:45.557Z,7.20
2023-11-22T04:44:13.415Z,7.07
2023-11-22T04:46:41.182Z,6.93
2023-11-22T04:49:09.522Z,7.28
2023-11-22T04:51:37.218Z,7.05
2023-11-22T04:54:05.272Z,8.10
2023-11-22T04:56:33.211Z,7.20
2023-11-22T04:59:02.451Z,6.82
2023-11-22T05:01:33.900Z,7.70
2023-11-22T05:04:01.792Z,7.10
2023-11-22T05:06:30.182Z,7.28
2023-11-22T05:08:58.082Z,7.35
2023-11-22T05:11:25.860Z,7.15
2023-11-22T05:13:53.589Z,6.50
2023-11-22T05:16:22.753Z,7.30
2023-11-22T05:18:50.602Z,6.45
2023-11-22T05:21:18.442Z,7.20
2023-11-22T05:23:46.778Z,7.18
2023-11-22T05:26:14.741Z,5.95
2023-11-22T05:28:42.545Z,6.10
2023-11-22T05:31:10.462Z,6.82
2023-11-22T05:33:39.535Z,6.32
2023-11-22T05:36:08.004Z,6.50
2023-11-22T05:38:35.721Z,6.60
2023-11-22T05:41:03.649Z,6.13
2023-11-22T05:43:31.448Z,6.50
2023-11-22T05:45:59.169Z,6.95
2023-11-22T05:48:26.964Z,7.63
2023-11-22T05:50:56.189Z,5.90
2023-11-22T05:53:23.987Z,6.90
2023-11-22T05:55:51.806Z,7.90
2023-11-22T05:58:19.876Z,6.20
2023-11-22T06:00:49.263Z,6.85
2023-11-22T06:03:17.167Z,7.22
2023-11-22T06:05:45.054Z,7.10
2023-11-22T06:08:14.145Z,7.05
2023-11-22T06:10:43.179Z,7.03
2023-11-22T06:13:13.170Z,6.72
2023-11-22T06:15:40.875Z,6.72
2023-11-22T06:18:08.671Z,6.50
2023-11-22T06:20:36.419Z,6.57
2023-11-22T06:23:04.398Z,7.13
2023-11-22T06:25:33.545Z,7.10
2023-11-22T06:28:02.987Z,6.72
2023-11-22T06:30:31.650Z,7.63
2023-11-22T06:32:59.896Z,7.22
2023-11-22T06:35:28.334Z,7.68
2023-11-22T06:37:56.082Z,7.13
2023-11-22T06:40:23.870Z,7.15
2023-11-22T06:42:53.532Z,7.40
2023-11-22T06:45:22.132Z,6.90
2023-11-22T06:47:51.363Z,8.32
2023-11-22T06:50:19.424Z,6.85
2023-11-22T06:52:50.002Z,7.60
2023-11-22T06:55:18.547Z,8.68
2023-11-22T06:57:46.643Z,6.82
2023-11-22T07:00:17.763Z,7.25
2023-11-22T07:02:46.297Z,5.82
2023-11-22T07:05:15.063Z,6.45
2023-11-22T07:07:42.905Z,7.90
2023-11-22T07:10:12.540Z,6.95
2023-11-22T07:12:41.067Z,8.15
2023-11-22T07:15:10.813Z,7.63
2023-11-22T07:17:40.144Z,8.25
2023-11-22T07:20:13.949Z,6.82
2023-11-22T07:22:44.036Z,6.20
2023-11-22T07:25:19.071Z,5.57
2023-11-22T07:27:47.676Z,7.07
2023-11-22T07:30:17.100Z,7.32
2023-11-22T07:32:46.439Z,6.60
2023-11-22T07:35:14.466Z,7.10
2023-11-22T07:37:43.556Z,7.82
2023-11-22T07:40:14.638Z,6.95
2023-11-22T07:42:42.503Z,7.15
2023-11-22T07:45:12.700Z,6.88
2023-11-22T07:47:42.890Z,6.53
2023-11-22T07:50:13.720Z,6.65
2023-11-22T07:52:42.955Z,8.13
2023-11-22T07:55:11.757Z,8.50
2023-11-22T07:57:40.845Z,8.43
2023-11-22T08:00:10.082Z,7.57
2023-11-22T08:02:40.946Z,8.05
2023-11-22T08:05:10.432Z,8.18
2023-11-22T08:07:41.406Z,10.23
2023-11-22T08:10:16.279Z,11.18
2023-11-22T08:12:43.983Z,10.98
2023-11-22T08:15:13.596Z,10.13
2023-11-22T08:17:41.817Z,9.45
2023-11-22T08:20:15.589Z,10.63
2023-11-22T08:22:46.491Z,9.07
2023-11-22T08:25:14.502Z,8.32
2023-11-22T08:27:43.135Z,7.93
2023-11-22T08:30:14.426Z,8.57
2023-11-22T08:32:43.554Z,7.63
2023-11-22T08:35:11.989Z,6.82
2023-11-22T08:37:43.544Z,5.50
2023-11-22T08:40:15.172Z,5.70
2023-11-22T08:42:43.216Z,6.43
2023-11-22T08:45:12.938Z,6.63
2023-11-22T08:47:41.689Z,5.77
2023-11-22T08:50:12.076Z,6.53
2023-11-22T08:52:40.503Z,6.00
2023-11-22T08:55:09.413Z,6.23
2023-11-22T08:57:40.001Z,5.20
2023-11-22T09:00:10.792Z,5.93
2023-11-22T09:02:40.273Z,6.10
2023-11-22T09:05:10.535Z,6.17
2023-11-22T09:07:39.028Z,6.27
2023-11-22T09:10:10.957Z,5.80
2023-11-22T09:12:41.676Z,5.10
2023-11-22T09:15:13.722Z,5.20
2023-11-22T09:17:45.406Z,5.47
2023-11-22T09:20:13.714Z,5.00
2023-11-22T09:22:49.639Z,4.90
2023-11-22T09:25:20.131Z,6.43
2023-11-22T09:27:52.640Z,8.30
2023-11-22T09:30:35.329Z,10.37
2023-11-22T09:33:04.659Z,5.40
2023-11-22T09:35:33.456Z,4.40
2023-11-22T09:38:01.531Z,4.03
2023-11-22T09:40:29.890Z,3.90
2023-11-22T09:42:59.152Z,4.63
2023-11-22T09:45:27.486Z,4.60
2023-11-22T09:47:56.479Z,4.27
2023-11-22T09:50:31.920Z,4.90
2023-11-22T09:53:03.323Z,5.80
2023-11-22T09:55:32.036Z,5.50
2023-11-22T09:58:03.429Z,5.03
2023-11-22T10:00:31.767Z,5.07
2023-11-22T10:03:00.007Z,4.43
2023-11-22T10:05:29.614Z,4.30
2023-11-22T10:07:57.691Z,4.35
2023-11-22T10:10:27.631Z,4.15
2023-11-22T10:12:57.699Z,4.10
2023-11-22T10:15:30.401Z,4.00
2023-11-22T10:17:59.999Z,4.00
2023-11-22T10:20:38.555Z,4.47
2023-11-22T10:23:10.821Z,3.58
2023-11-22T10:25:38.769Z,4.25
2023-11-22T10:28:08.324Z,4.50
2023-11-22T10:30:37.789Z,4.18
2023-11-22T10:33:06.587Z,3.95
2023-11-22T10:35:34.436Z,4.47
2023-11-22T10:38:03.491Z,4.28
2023-11-22T10:40:31.507Z,3.05
2023-11-22T10:42:59.480Z,3.67
2023-11-22T10:45:31.496Z,4.50
2023-11-22T10:48:02.885Z,4.68
2023-11-22T10:50:31.090Z,3.97
2023-11-22T10:53:01.401Z,4.17
2023-11-22T10:55:29.565Z,4.57
2023-11-22T10:58:02.625Z,4.30
2023-11-22T11:00:33.724Z,3.20
2023-11-22T11:03:10.786Z,3.83
2023-11-22T11:05:42.347Z,4.17
2023-11-22T11:08:14.013Z,3.43
2023-11-22T11:10:42.661Z,3.83
2023-11-22T11:13:11.752Z,4.30
2023-11-22T11:15:40.848Z,3.80
2023-11-22T11:18:12.839Z,3.90
2023-11-22T11:20:49.087Z,4.57
2023-11-22T11:23:16.888Z,4.17
2023-11-22T11:25:44.634Z,3.80
2023-11-22T11:28:13.870Z,4.00
2023-11-22T11:30:46.180Z,4.43
2023-11-22T11:33:18.427Z,4.30
2023-11-22T11:35:48.750Z,4.87
2023-11-22T11:38:18.200Z,3.83
2023-11-22T11:40:48.885Z,4.10
2023-11-22T11:43:16.925Z,3.10
2023-11-22T11:45:47.177Z,3.70
2023-11-22T11:48:19.740Z,3.30
2023-11-22T11:50:49.050Z,3.57
2023-11-22T11:53:21.418Z,3.60
2023-11-22T11:55:52.457Z,3.83
2023-11-22T11:58:20.501Z,3.80
2023-11-22T12:00:48.285Z,3.53
2023-11-22T12:03:22.181Z,4.13
2023-11-22T12:05:51.222Z,3.77
2023-11-22T12:08:19.662Z,2.97
2023-11-22T12:10:49.852Z,3.70
2023-11-22T12:13:20.166Z,4.20
2023-11-22T12:15:48.475Z,3.50
2023-11-22T12:18:18.240Z,4.23
2023-11-22T12:20:56.844Z,4.00
2023-11-22T12:23:25.267Z,3.80
2023-11-22T12:25:56.440Z,4.13
2023-11-22T12:28:26.848Z,3.90
2023-11-22T12:30:55.039Z,3.50
2023-11-22T12:33:24.289Z,3.90
2023-11-22T12:35:52.108Z,3.30
2023-11-22T12:38:19.996Z,3.60
2023-11-22T12:40:48.843Z,3.57
2023-11-22T12:43:17.099Z,3.43
2023-11-22T12:45:46.574Z,3.50
2023-11-22T12:48:26.488Z,3.53
2023-11-22T12:50:55.203Z,3.10
2023-11-22T12:53:23.565Z,3.20
2023-11-22T12:55:52.758Z,3.00
2023-11-22T12:58:21.673Z,2.20
2023-11-22T13:00:51.797Z,2.70
2023-11-22T13:03:19.651Z,2.03
2023-11-22T13:05:49.396Z,2.53
2023-11-22T13:08:18.182Z,2.20
2023-11-22T13:10:48.594Z,2.20
2023-11-22T13:13:16.274Z,1.67
2023-11-22T13:15:43.964Z,1.80
2023-11-22T13:18:11.831Z,2.13
2023-11-22T13:20:41.837Z,1.50
2023-11-22T13:23:11.456Z,1.40
2023-11-22T13:25:39.451Z,1.47
2023-11-22T13:28:07.365Z,1.57
2023-11-22T13:30:35.103Z,1.90
2023-11-22T13:33:04.155Z,2.20
2023-11-22T13:35:32.757Z,1.77
2023-11-22T13:38:02.976Z,5.10
2023-11-22T13:40:32.061Z,2.30
2023-11-22T13:43:00.329Z,1.90
2023-11-22T13:45:28.166Z,2.07
2023-11-22T13:48:01.797Z,2.13
2023-11-22T13:50:29.805Z,1.67
2023-11-22T13:52:59.708Z,2.03
2023-11-22T13:55:28.654Z,1.80
2023-11-22T13:57:59.785Z,2.23
2023-11-22T14:00:33.543Z,2.40
2023-11-22T14:03:07.132Z,1.90
2023-11-22T14:05:37.538Z,1.77
2023-11-22T14:08:07.267Z,2.17
2023-11-22T14:10:35.121Z,1.90
2023-11-22T14:13:05.338Z,2.10
2023-11-22T14:15:33.196Z,2.30
2023-11-22T14:18:01.265Z,2.33
2023-11-22T14:20:30.767Z,2.30
2023-11-22T14:22:58.730Z,2.08
2023-11-22T14:25:27.739Z,1.63
2023-11-22T14:27:57.327Z,2.15
2023-11-22T14:30:29.131Z,1.93
2023-11-22T14:32:59.798Z,2.05
2023-11-22T14:35:28.635Z,2.00
2023-11-22T14:37:59.564Z,2.05
2023-11-22T14:40:27.409Z,1.95
2023-11-22T14:42:55.136Z,2.50
2023-11-22T14:45:22.802Z,2.40
2023-11-22T14:47:53.173Z,2.88
2023-11-22T14:50:22.554Z,2.38
2023-11-22T14:52:51.584Z,2.67
2023-11-22T14:55:21.822Z,2.42
2023-11-22T14:57:51.216Z,2.50
2023-11-22T15:00:20.785Z,2.92
2023-11-22T15:02:50.809Z,3.38
2023-11-22T15:05:20.190Z,3.20
2023-11-22T15:07:48.104Z,2.80
2023-11-22T15:10:16.228Z,3.25
2023-11-22T15:12:44.080Z,2.90
2023-11-22T15:15:13.265Z,3.22
2023-11-22T15:17:41.187Z,2.90
2023-11-22T15:20:12.833Z,2.50
2023-11-22T15:22:42.755Z,2.80
2023-11-22T15:25:11.771Z,2.30
2023-11-22T15:27:39.558Z,2.88
2023-11-22T15:30:09.407Z,2.55
2023-11-22T15:32:37.464Z,2.70
2023-11-22T15:35:06.496Z,3.47
2023-11-22T15:37:33.637Z,2.78
2023-11-22T15:40:02.834Z,3.00
2023-11-22T15:42:30.769Z,3.53
2023-11-22T15:44:58.996Z,2.90
2023-11-22T15:47:26.780Z,3.80
2023-11-22T15:49:55.601Z,3.90
2023-11-22T15:52:23.352Z,3.42
2023-11-22T15:54:51.108Z,3.75
2023-11-22T15:57:20.181Z,3.63
2023-11-22T15:59:50.115Z,3.05
2023-11-22T16:02:18.666Z,3.05
2023-11-22T16:04:47.362Z,3.67
2023-11-22T16:07:16.059Z,3.22
2023-11-22T16:09:44.621Z,3.50
2023-11-22T16:12:19.508Z,4.05
2023-11-22T16:14:49.207Z,3.75
2023-11-22T16:17:20.198Z,3.75
2023-11-22T16:19:48.118Z,4.72
2023-11-22T16:22:16.461Z,3.95
2023-11-22T16:24:44.155Z,4.20
2023-11-22T16:27:11.887Z,4.07
2023-11-22T16:29:39.615Z,4.40
2023-11-22T16:32:08.865Z,3.97
2023-11-22T16:34:36.608Z,3.88
2023-11-22T16:37:04.537Z,4.13
2023-11-22T16:39:33.292Z,4.45
2023-11-22T16:42:01.202Z,4.22
2023-11-22T16:44:29.538Z,4.18
2023-11-22T16:46:59.391Z,4.95
2023-11-22T16:49:28.676Z,4.30
2023-11-22T16:51:56.505Z,5.07
2023-11-22T16:54:24.280Z,4.82
2023-11-22T16:56:52.280Z,4.95
2023-11-22T16:59:20.150Z,4.57
2023-11-22T17:01:47.921Z,5.22
2023-11-22T17:04:15.691Z,4.88
2023-11-22T17:06:44.757Z,5.68
2023-11-22T17:09:15.086Z,5.80
2023-11-22T17:11:44.858Z,5.18
2023-11-22T17:14:12.566Z,5.65
2023-11-22T17:16:41.071Z,5.63
2023-11-22T17:19:08.906Z,5.22
2023-11-22T17:21:37.236Z,5.88
2023-11-22T17:24:08.927Z,6.25
2023-11-22T17:26:37.831Z,6.10
2023-11-22T17:29:06.891Z,5.82
2023-11-22T17:31:34.588Z,6.68
2023-11-22T17:34:02.423Z,7.70
2023-11-22T17:36:30.186Z,11.10
2023-11-22T17:38:57.971Z,9.05
2023-11-22T17:41:28.558Z,8.13
2023-11-22T17:43:56.897Z,7.68
2023-11-22T17:46:24.660Z,7.53
2023-11-22T17:48:52.764Z,7.30
2023-11-22T17:51:20.871Z,7.90
2023-11-22T17:53:48.646Z,8.00
2023-11-22T17:56:16.528Z,6.82
2023-11-22T17:58:45.571Z,7.97
2023-11-22T18:01:13.307Z,8.50
2023-11-22T18:03:41.281Z,7.50
2023-11-22T18:06:09.915Z,6.93
2023-11-22T18:08:37.762Z,6.68
2023-11-22T18:11:06.378Z,6.95
2023-11-22T18:13:34.082Z,8.55
2023-11-22T18:16:03.866Z,7.30
2023-11-22T18:18:31.628Z,8.15
2023-11-22T18:20:59.510Z,7.90
2023-11-22T18:23:29.389Z,8.50
2023-11-22T18:25:57.119Z,9.98
2023-11-22T18:28:24.854Z,10.38
2023-11-22T18:30:52.557Z,9.40
2023-11-22T18:33:21.738Z,9.23
2023-11-22T18:35:49.882Z,8.30
2023-11-22T18:38:22.045Z,9.98
2023-11-22T18:40:49.746Z,9.70
2023-11-22T18:43:18.265Z,9.65
2023-11-22T18:45:47.268Z,9.63
2023-11-22T18:48:15.856Z,10.23
2023-11-22T18:50:44.963Z,10.18
2023-11-22T18:53:12.632Z,9.68
2023-11-22T18:55:40.340Z,9.50
2023-11-22T18:58:09.028Z,10.43
2023-11-22T19:00:36.786Z,9.60
2023-11-22T19:03:04.876Z,10.05
2023-11-22T19:05:33.050Z,9.85
2023-11-22T19:08:03.450Z,9.23
2023-11-22T19:10:31.224Z,8.70
2023-11-22T19:12:58.917Z,8.27
2023-11-22T19:15:26.838Z,8.82
2023-11-22T19:17:55.032Z,10.18
2023-11-22T19:20:23.797Z,9.65
2023-11-22T19:22:51.463Z,8.38
2023-11-22T19:25:20.814Z,8.60
2023-11-22T19:27:48.530Z,8.52
2023-11-22T19:30:16.848Z,9.57
2023-11-22T19:32:44.639Z,10.15
2023-11-22T19:35:12.397Z,9.55
2023-11-22T19:37:40.149Z,10.50
2023-11-22T19:40:08.963Z,9.70
2023-11-22T19:42:38.241Z,10.60
2023-11-22T19:45:07.417Z,10.02
2023-11-22T19:47:35.295Z,9.80
2023-11-22T19:50:03.025Z,10.48
2023-11-22T19:52:30.778Z,10.57
2023-11-22T19:54:58.900Z,11.95
2023-11-22T19:57:26.649Z,10.20
2023-11-22T19:59:57.486Z,11.60
2023-11-22T20:02:25.439Z,11.43
2023-11-22T20:04:53.177Z,10.50
2023-11-22T20:07:20.871Z,11.20
2023-11-22T20:09:48.607Z,9.82
2023-11-22T20:12:16.535Z,11.80
2023-11-22T20:14:46.287Z,11.05
2023-11-22T20:17:15.483Z,11.38
2023-11-22T20:19:43.503Z,12.30
2023-11-22T20:22:11.251Z,11.52
2023-11-22T20:24:40.370Z,11.82
2023-11-22T20:27:08.287Z,10.70
2023-11-22T20:29:36.081Z,12.02
2023-11-22T20:32:03.840Z,11.30
2023-11-22T20:34:32.995Z,12.18
2023-11-22T20:37:00.814Z,14.52
2023-11-22T20:39:30.168Z,11.77
2023-11-22T20:41:58.053Z,13.00
2023-11-22T20:44:25.826Z,12.63
2023-11-22T20:46:53.651Z,12.38
2023-11-22T20:49:22.456Z,11.70
2023-11-22T20:51:51.667Z,13.05
2023-11-22T20:54:19.486Z,12.68
2023-11-22T20:56:47.990Z,11.95
2023-11-22T20:59:15.767Z,10.45
2023-11-22T21:01:43.696Z,10.63
2023-11-22T21:04:11.972Z,12.07
2023-11-22T21:06:42.604Z,12.00
2023-11-22T21:09:12.595Z,11.18
2023-11-22T21:11:41.961Z,11.15
2023-11-22T21:14:10.046Z,12.10
2023-11-22T21:16:41.708Z,11.07
2023-11-22T21:19:10.854Z,11.82
2023-11-22T21:21:38.802Z,13.18
2023-11-22T21:24:07.238Z,12.00
2023-11-22T21:26:36.466Z,11.85
2023-11-22T21:29:04.359Z,12.13
2023-11-22T21:31:32.480Z,12.85
2023-11-22T21:34:00.328Z,10.27
2023-11-22T21:36:28.197Z,11.63
2023-11-22T21:38:56.256Z,11.05
2023-11-22T21:41:23.989Z,11.90
2023-11-22T21:43:56.805Z,11.57
2023-11-22T21:46:24.566Z,11.35
2023-11-22T21:48:52.437Z,10.77
2023-11-22T21:51:20.144Z,11.77
2023-11-22T21:53:47.896Z,11.30
2023-11-22T21:56:15.610Z,11.90
2023-11-22T21:58:43.324Z,11.52
2023-11-22T22:01:13.789Z,11.52
2023-11-22T22:03:41.956Z,12.77
2023-11-22T22:06:09.944Z,10.98
2023-11-22T22:08:37.872Z,12.07
2023-11-22T22:11:06.299Z,12.05
2023-11-22T22:13:35.130Z,11.20
2023-11-22T22:16:02.936Z,11.40
2023-11-22T22:18:32.182Z,10.90
2023-11-22T22:20:59.990Z,11.13
2023-11-22T22:23:28.635Z,10.85
2023-11-22T22:25:56.321Z,10.88
2023-11-22T22:28:24.022Z,11.55
2023-11-22T22:30:51.745Z,11.32
2023-11-22T22:33:19.538Z,10.45
2023-11-22T22:35:49.663Z,11.32
2023-11-22T22:38:18.813Z,10.77
2023-11-22T22:40:46.781Z,10.60
2023-11-22T22:43:14.564Z,10.55
2023-11-22T22:45:42.307Z,10.00
2023-11-22T22:48:10.419Z,10.93
2023-11-22T22:50:38.663Z,11.75
2023-11-22T22:53:07.994Z,8.93
2023-11-22T22:55:35.713Z,10.75
2023-11-22T22:58:03.851Z,11.57
2023-11-22T23:00:39.124Z,10.25
2023-11-22T23:03:07.136Z,11.07
2023-11-22T23:05:35.122Z,10.48
2023-11-22T23:08:02.876Z,10.88
2023-11-22T23:10:32.054Z,11.60
2023-11-22T23:12:59.940Z,9.95
2023-11-22T23:15:27.676Z,11.35
2023-11-22T23:17:55.991Z,11.52
2023-11-22T23:20:23.992Z,11.13
2023-11-22T23:22:52.354Z,10.82
2023-11-22T23:25:22.965Z,10.93
2023-11-22T23:27:52.380Z,9.52
2023-11-22T23:30:21.607Z,10.43
2023-11-22T23:32:49.462Z,10.20
2023-11-22T23:35:18.623Z,9.85
2023-11-22T23:37:47.428Z,10.70
2023-11-22T23:40:21.341Z,11.15
2023-11-22T23:42:50.272Z,9.85
2023-11-22T23:45:20.859Z,12.07
2023-11-22T23:47:49.199Z,9.70
2023-11-22T23:50:17.600Z,10.30
2023-11-22T23:52:45.831Z,10.43
2023-11-22T23:55:13.605Z,10.02
2023-11-22T23:57:41.622Z,10.45
